M I D A S
Marine Information and Data Acquisition System
Tripno 1890 of the Zeeleeuw from 2010-05-31 07:21:00 to 2010-05-31 11:38:17
Back to CruiseResearch ActivitiesStationsMapUnderway DataData graphs

EquipmentUnitsComment
TimeDGPSUTC
LatitudeDGPSDM.mWGS84
LongitudeDGPSDM.mWGS84
HeadingGyrodeg 
SOGDGPSknotsSpeed over ground
COGDGPSdegCourse over ground
DepthEcho soundermeters200 kHz
Missing or incorrect values are displayed as -999
Navigation data collected by the RV Zeeleeuw from 2010-05-31 06:51:01 to 2010-05-31 11:47:31
                                                                                    Next 1000 lines
Time Latitude Longitude Heading SOG COG Depth
2010-05-31 06:51:12 51°13.66 2°55.96 108.9 0.1 1 6
2010-05-31 06:51:16 51°13.661 2°55.959 108.1 0.1 286 6
2010-05-31 06:51:21 51°13.66 2°55.959 108.1 0.2 279 6.1
2010-05-31 06:51:27 51°13.661 2°55.958 108.2 0.3 289 6.1
2010-05-31 06:51:32 51°13.661 2°55.958 108.3 0.2 274 6.2
2010-05-31 06:51:36 51°13.661 2°55.958 108.5 0.1 317 6.2
2010-05-31 06:51:41 51°13.661 2°55.958 108.7 -999 235 6.1
2010-05-31 06:51:47 51°13.661 2°55.958 108.9 0.1 54 6.1
2010-05-31 06:51:52 51°13.661 2°55.958 109 0.1 134 6.1
2010-05-31 06:51:56 51°13.661 2°55.959 108.6 0.2 71 6.1
2010-05-31 06:52:02 51°13.661 2°55.959 108.1 0.1 127 6.1
2010-05-31 06:52:06 51°13.661 2°55.959 107.7 0.1 74 6
2010-05-31 06:52:12 51°13.661 2°55.959 107.2 0.2 283 6
2010-05-31 06:52:16 51°13.661 2°55.958 107 0.5 285 6.1
2010-05-31 06:52:22 51°13.661 2°55.956 107 0.9 285 6.1
2010-05-31 06:52:27 51°13.662 2°55.953 107.2 1.3 285 6.2
2010-05-31 06:52:31 51°13.662 2°55.95 107.5 1.8 287 6.1
2010-05-31 06:52:37 51°13.664 2°55.944 107.8 2.5 287 -999
2010-05-31 06:52:43 51°13.665 2°55.937 108.2 3.1 289 -999
2010-05-31 06:52:48 51°13.667 2°55.929 108.6 3.5 289 -999
2010-05-31 06:52:54 51°13.669 2°55.92 108.9 4 290 -999
2010-05-31 06:52:59 51°13.671 2°55.911 109 4.2 290 -999
2010-05-31 06:53:05 51°13.673 2°55.9 109.2 4.3 291 -999
2010-05-31 06:53:10 51°13.675 2°55.891 109.6 4.4 290 -999
2010-05-31 06:53:15 51°13.677 2°55.882 110.1 4.5 290 -999
2010-05-31 06:53:20 51°13.68 2°55.873 110.6 4.5 291 -999
2010-05-31 06:53:25 51°13.682 2°55.863 111.5 4.7 291 -999
2010-05-31 06:53:30 51°13.685 2°55.854 112.4 4.8 293 -999
2010-05-31 06:53:35 51°13.687 2°55.844 114 5 294 -999
2010-05-31 06:53:40 51°13.691 2°55.833 116 5.1 297 -999
2010-05-31 06:53:45 51°13.694 2°55.823 118.4 5.2 298 -999
2010-05-31 06:53:50 51°13.698 2°55.813 120.9 5.3 301 -999
2010-05-31 06:53:55 51°13.702 2°55.803 123.6 5.4 302 -999
2010-05-31 06:54:00 51°13.706 2°55.793 125.2 5.5 304 -999
2010-05-31 06:54:05 51°13.71 2°55.782 127.1 5.6 305 -999
2010-05-31 06:54:10 51°13.715 2°55.773 128 5.5 307 -999
2010-05-31 06:54:15 51°13.719 2°55.763 129.3 5.5 306 -999
2010-05-31 06:54:20 51°13.724 2°55.753 130.3 5.4 306 -999
2010-05-31 06:54:25 51°13.728 2°55.744 131.3 5.3 308 -999
2010-05-31 06:54:30 51°13.733 2°55.735 132.7 5.4 309 -999
2010-05-31 06:54:35 51°13.738 2°55.726 134.6 5.2 311 12
2010-05-31 06:54:40 51°13.742 2°55.718 136.9 5.1 312 -999
2010-05-31 06:54:45 51°13.747 2°55.71 139.4 4.9 315 -999
2010-05-31 06:54:50 51°13.752 2°55.703 142.3 4.9 318 -999
2010-05-31 06:54:55 51°13.757 2°55.696 145.2 4.9 321 -999
2010-05-31 06:55:00 51°13.763 2°55.689 148.1 5 324 -999
2010-05-31 06:55:05 51°13.769 2°55.683 151 5 328 -999
2010-05-31 06:55:10 51°13.775 2°55.678 154 4.5 331 -999
2010-05-31 06:55:15 51°13.779 2°55.675 157.4 3.6 336 -999
2010-05-31 06:55:20 51°13.782 2°55.672 160.6 2.6 333 -999
2010-05-31 06:55:25 51°13.785 2°55.67 162.1 2 336 -999
2010-05-31 06:55:30 51°13.788 2°55.668 161.8 2.4 337 11
2010-05-31 06:55:35 51°13.792 2°55.666 161.6 2.9 339 11
2010-05-31 06:55:40 51°13.796 2°55.664 162.1 3.2 342 11
2010-05-31 06:55:44 51°13.8 2°55.662 163.3 3.5 342 4.7
2010-05-31 06:55:50 51°13.806 2°55.659 164.4 4 345 -999
2010-05-31 06:55:55 51°13.811 2°55.656 165.5 4.2 344 -999
2010-05-31 06:56:00 51°13.817 2°55.654 166.3 4.4 347 -999
2010-05-31 06:56:05 51°13.823 2°55.652 166.8 4.6 346 -999
2010-05-31 06:56:10 51°13.829 2°55.65 167 4.7 347 -999
2010-05-31 06:56:15 51°13.836 2°55.647 166.9 4.9 347 -999
2010-05-31 06:56:20 51°13.843 2°55.645 166.5 5 346 -999
2010-05-31 06:56:25 51°13.85 2°55.642 165.8 5.2 346 -999
2010-05-31 06:56:30 51°13.857 2°55.639 165.5 5.1 345 -999
2010-05-31 06:56:35 51°13.863 2°55.636 164.9 4.9 345 -999
2010-05-31 06:56:40 51°13.87 2°55.633 164.7 4.8 345 -999
2010-05-31 06:56:45 51°13.876 2°55.63 164.6 4.7 344 -999
2010-05-31 06:56:50 51°13.882 2°55.628 164.8 4.6 345 -999
2010-05-31 06:56:55 51°13.888 2°55.625 165.2 4.5 345 -999
2010-05-31 06:57:00 51°13.894 2°55.623 165.8 4.4 345 -999
2010-05-31 06:57:05 51°13.9 2°55.621 166.3 4.2 345 -999
2010-05-31 06:57:10 51°13.905 2°55.618 166.4 4 346 -999
2010-05-31 06:57:15 51°13.91 2°55.617 167.2 3.9 348 -999
2010-05-31 06:57:20 51°13.915 2°55.615 168.5 3.8 349 -999
2010-05-31 06:57:25 51°13.92 2°55.614 170.7 3.6 352 -999
2010-05-31 06:57:30 51°13.925 2°55.613 172.8 3.5 355 -999
2010-05-31 06:57:35 51°13.93 2°55.613 176.4 3.4 359 -999
2010-05-31 06:57:40 51°13.935 2°55.613 179.7 3.3 2 -999
2010-05-31 06:57:45 51°13.939 2°55.614 182.3 3.1 7 -999
2010-05-31 06:57:50 51°13.943 2°55.615 185.9 3 10 -999
2010-05-31 06:57:55 51°13.947 2°55.616 188.4 2.9 12 -999
2010-05-31 06:58:00 51°13.95 2°55.618 190.4 2.8 14 -999
2010-05-31 06:58:05 51°13.954 2°55.619 191.8 2.7 16 4.7
2010-05-31 06:58:10 51°13.957 2°55.621 193 2.6 19 4.7
2010-05-31 06:58:15 51°13.961 2°55.623 194.1 2.5 19 4.6
2010-05-31 06:58:19 51°13.963 2°55.624 195.2 2.5 21 4.6
2010-05-31 06:58:24 51°13.966 2°55.626 195.8 2.4 22 11.1
2010-05-31 06:58:29 51°13.969 2°55.628 196.1 2.3 21 10.8
2010-05-31 06:58:34 51°13.972 2°55.63 196 2.1 22 10.9
2010-05-31 06:58:39 51°13.974 2°55.632 195.1 1.5 26 10.8
2010-05-31 06:58:43 51°13.974 2°55.632 193.6 0.5 53 10.8
2010-05-31 06:58:48 51°13.973 2°55.633 193 0.5 167 10.7
2010-05-31 06:58:53 51°13.971 2°55.633 194.2 1.1 182 10.8
2010-05-31 06:58:58 51°13.969 2°55.632 198.2 1.6 198 10.8
2010-05-31 06:59:03 51°13.966 2°55.631 202.6 2.1 191 10.8
2010-05-31 06:59:07 51°13.964 2°55.629 207.7 2.1 215 10.8
2010-05-31 06:59:12 51°13.961 2°55.627 212.7 2.3 203 10.8
2010-05-31 06:59:17 51°13.959 2°55.624 217.2 2.3 216 10.9
2010-05-31 06:59:22 51°13.956 2°55.621 221.8 2.4 211 10.9
2010-05-31 06:59:26 51°13.954 2°55.619 226 2 219 11.3
2010-05-31 06:59:32 51°13.952 2°55.616 229.5 1.6 215 11.2
2010-05-31 06:59:36 51°13.951 2°55.615 232.4 1.2 206 10.8
2010-05-31 06:59:42 51°13.95 2°55.614 236.4 0.6 195 10.9
2010-05-31 06:59:47 51°13.949 2°55.615 239.2 0.6 141 10.8
2010-05-31 06:59:52 51°13.949 2°55.617 242.2 0.9 95 10.8
2010-05-31 06:59:56 51°13.949 2°55.62 244.8 1.5 92 10.9
2010-05-31 07:00:02 51°13.949 2°55.625 247.2 1.8 84 10.9
2010-05-31 07:00:07 51°13.949 2°55.629 248.1 1.9 87 -999
2010-05-31 07:00:12 51°13.95 2°55.633 248.3 1.7 84 -999
2010-05-31 07:00:18 51°13.949 2°55.636 247.4 1.1 97 -999
2010-05-31 07:00:23 51°13.948 2°55.636 247 0.6 184 -999
2010-05-31 07:00:29 51°13.947 2°55.634 249.6 1.4 238 -999
2010-05-31 07:00:35 51°13.946 2°55.628 254 2.2 250 -999
2010-05-31 07:00:40 51°13.945 2°55.623 261.6 2.6 260 -999
2010-05-31 07:00:45 51°13.945 2°55.616 268.9 3.1 269 -999
2010-05-31 07:00:50 51°13.946 2°55.609 276.2 3.3 279 -999
2010-05-31 07:00:55 51°13.947 2°55.602 282.3 3.4 288 10.9
2010-05-31 07:01:00 51°13.949 2°55.595 288.3 3.5 295 10.9
2010-05-31 07:01:04 51°13.952 2°55.589 294.3 3.6 302 10.8
2010-05-31 07:01:09 51°13.955 2°55.583 302 3.7 309 10.6
2010-05-31 07:01:14 51°13.959 2°55.576 309.1 4 313 10.6
2010-05-31 07:01:19 51°13.963 2°55.57 314.3 4.5 321 10.7
2010-05-31 07:01:24 51°13.968 2°55.563 319.1 4.8 323 10.7
2010-05-31 07:01:28 51°13.973 2°55.558 323.1 5.1 325 10.7
2010-05-31 07:01:33 51°13.98 2°55.552 326.7 5.5 328 10.6
2010-05-31 07:01:38 51°13.987 2°55.545 329.3 6 328 10.6
2010-05-31 07:01:43 51°13.994 2°55.537 329.9 6.4 327 10.6
2010-05-31 07:01:47 51°14 2°55.531 329.7 6.7 328 10.7
2010-05-31 07:01:52 51°14.008 2°55.522 329.7 7 327 10.6
2010-05-31 07:01:57 51°14.017 2°55.514 330.3 7.3 330 10.6
2010-05-31 07:02:02 51°14.026 2°55.506 331.1 7.7 329 10.6
2010-05-31 07:02:07 51°14.036 2°55.497 331.7 7.9 331 10.6
2010-05-31 07:02:11 51°14.044 2°55.49 332.2 8.1 331 10.6
2010-05-31 07:02:16 51°14.054 2°55.482 332.5 8.4 332 10.8
2010-05-31 07:02:21 51°14.064 2°55.473 333.4 8.6 333 10.7
2010-05-31 07:02:27 51°14.078 2°55.463 334.6 8.8 334 10.6
2010-05-31 07:02:32 51°14.089 2°55.454 334.9 9.1 333 10.7
2010-05-31 07:02:36 51°14.098 2°55.445 333.5 9.3 331 10.5
2010-05-31 07:02:41 51°14.109 2°55.436 333.2 9.4 331 10.5
2010-05-31 07:02:47 51°14.123 2°55.423 333.1 9.6 331 10.5
2010-05-31 07:02:52 51°14.135 2°55.413 332.5 9.7 331 10.5
2010-05-31 07:02:56 51°14.145 2°55.405 332.7 9.8 331 10.3
2010-05-31 07:03:01 51°14.157 2°55.394 333.1 9.8 330 10.4
2010-05-31 07:03:06 51°14.168 2°55.382 332.1 10 328 10.5
2010-05-31 07:03:12 51°14.183 2°55.368 330 10.2 328 10.5
2010-05-31 07:03:16 51°14.192 2°55.359 330 10.2 329 10.4
2010-05-31 07:03:22 51°14.207 2°55.343 329.8 10.3 326 10.4
2010-05-31 07:03:27 51°14.219 2°55.33 328.1 10.4 325 10.5
2010-05-31 07:03:31 51°14.228 2°55.32 327.3 10.5 325 10.4
2010-05-31 07:03:37 51°14.243 2°55.304 327.6 10.6 326 10.4
2010-05-31 07:03:42 51°14.255 2°55.291 327.7 10.6 325 10.3
2010-05-31 07:03:47 51°14.266 2°55.277 326.9 10.6 324 10.2
2010-05-31 07:03:52 51°14.278 2°55.263 326.2 10.6 324 9.8
2010-05-31 07:03:56 51°14.288 2°55.252 326.7 10.7 326 9.7
2010-05-31 07:04:02 51°14.304 2°55.237 328.5 10.9 328 10.1
2010-05-31 07:04:07 51°14.316 2°55.223 329.3 11 325 9.8
2010-05-31 07:04:11 51°14.326 2°55.212 329 11.1 327 9.9
2010-05-31 07:04:16 51°14.34 2°55.2 329.7 11.1 328 9.4
2010-05-31 07:04:22 51°14.355 2°55.183 330 11.3 328 10.1
2010-05-31 07:04:27 51°14.368 2°55.17 329.7 11.2 327 10.2
2010-05-31 07:04:32 51°14.381 2°55.156 328.3 11.3 325 10.1
2010-05-31 07:04:36 51°14.392 2°55.145 328.8 11.4 329 10.2
2010-05-31 07:04:41 51°14.405 2°55.132 330.3 11.5 328 10.1
2010-05-31 07:04:46 51°14.419 2°55.119 330.5 11.5 328 9.7
2010-05-31 07:04:52 51°14.435 2°55.101 329.9 11.5 326 9.7
2010-05-31 07:04:56 51°14.445 2°55.09 328.5 11.7 326 10.1
2010-05-31 07:05:02 51°14.462 2°55.074 329.1 11.8 329 11.2
2010-05-31 07:05:06 51°14.473 2°55.062 330 11.8 327 11.1
2010-05-31 07:05:12 51°14.489 2°55.045 329.6 11.7 326 10.2
2010-05-31 07:05:16 51°14.499 2°55.033 328.3 11.5 325 10.2
2010-05-31 07:05:21 51°14.512 2°55.019 327 11.6 323 10.7
2010-05-31 07:05:26 51°14.524 2°55.002 325.8 11.7 317 11.4
2010-05-31 07:05:32 51°14.538 2°54.978 323.1 12 311 12
2010-05-31 07:05:36 51°14.546 2°54.962 319.9 12.1 310 11.7
2010-05-31 07:05:42 51°14.56 2°54.937 319.3 12.2 312 10.9
2010-05-31 07:05:46 51°14.57 2°54.921 322 12.3 314 10.8
2010-05-31 07:05:51 51°14.582 2°54.904 326.7 12.2 320 11.2
2010-05-31 07:05:56 51°14.595 2°54.884 328.7 12.5 314 11
2010-05-31 07:06:02 51°14.608 2°54.859 324.5 12.6 309 10.8
2010-05-31 07:06:07 51°14.618 2°54.835 318.7 12.9 302 11.4
2010-05-31 07:06:11 51°14.624 2°54.814 312.1 13 297 11.6
2010-05-31 07:06:17 51°14.633 2°54.782 306.3 13.2 293 12
2010-05-31 07:06:22 51°14.638 2°54.753 300.9 13.4 287 11.5
2010-05-31 07:06:27 51°14.643 2°54.725 295.2 13.5 283 11.3
2010-05-31 07:06:32 51°14.645 2°54.695 288.9 13.7 278 11.1
2010-05-31 07:06:36 51°14.647 2°54.67 284.6 13.9 276 12
2010-05-31 07:06:41 51°14.647 2°54.639 281.2 13.8 270 11.3
2010-05-31 07:06:46 51°14.646 2°54.609 275.5 14 265 9.2
2010-05-31 07:06:51 51°14.642 2°54.578 268.6 14 258 9.3
2010-05-31 07:06:56 51°14.637 2°54.549 263 14 255 9.4
2010-05-31 07:07:02 51°14.628 2°54.514 257.1 14.1 246 9.7
2010-05-31 07:07:07 51°14.62 2°54.486 251.2 14.1 243 9.4
2010-05-31 07:07:11 51°14.611 2°54.465 245.1 14.2 236 9.7
2010-05-31 07:07:16 51°14.6 2°54.44 238.6 14.2 233 9.8
2010-05-31 07:07:21 51°14.586 2°54.417 232 14.2 228 9.3
2010-05-31 07:07:27 51°14.57 2°54.389 228 14.5 226 9.5
2010-05-31 07:07:32 51°14.556 2°54.365 226.8 14.7 231 9.3
2010-05-31 07:07:36 51°14.546 2°54.345 228.8 14.1 228 9.2
2010-05-31 07:07:41 51°14.532 2°54.323 226 14.5 227 8.9
2010-05-31 07:07:47 51°14.517 2°54.291 227.4 15 234 9.2
2010-05-31 07:07:51 51°14.508 2°54.271 231.3 14.6 232 9.1
2010-05-31 07:07:56 51°14.494 2°54.247 230 14.6 227 9.4
2010-05-31 07:08:02 51°14.481 2°54.214 231.6 14.6 239 9.1
2010-05-31 07:08:06 51°14.469 2°54.196 233.6 14.5 228 8.9
2010-05-31 07:08:11 51°14.458 2°54.169 231.2 14.5 237 9.3
2010-05-31 07:08:16 51°14.447 2°54.143 234.9 14.4 231 8.9
2010-05-31 07:08:22 51°14.431 2°54.113 231.6 14.7 233 9
2010-05-31 07:08:26 51°14.423 2°54.09 234.7 14.9 236 8.8
2010-05-31 07:08:32 51°14.407 2°54.06 233.8 14.8 232 8.7
2010-05-31 07:08:36 51°14.399 2°54.038 234.1 14.6 236 8.5
2010-05-31 07:08:42 51°14.384 2°54.007 233.5 14.6 233 8.8
2010-05-31 07:08:47 51°14.372 2°53.98 234.9 14.6 235 8.6
2010-05-31 07:08:52 51°14.36 2°53.954 234.5 14.7 234 8.5
2010-05-31 07:08:56 51°14.35 2°53.933 233.5 14.8 234 8.4
2010-05-31 07:09:02 51°14.336 2°53.901 234.1 14.9 235 8.2
2010-05-31 07:09:07 51°14.324 2°53.875 234.1 14.8 234 9
2010-05-31 07:09:11 51°14.315 2°53.854 235.8 14.5 234 9
2010-05-31 07:09:16 51°14.302 2°53.828 235.1 14.8 232 9
2010-05-31 07:09:21 51°14.291 2°53.801 235.3 14.6 237 8.9
2010-05-31 07:09:27 51°14.277 2°53.769 237.1 14.5 232 8.6
2010-05-31 07:09:32 51°14.265 2°53.743 233.7 14.7 235 8.6
2010-05-31 07:09:36 51°14.255 2°53.721 235 14.9 235 8.7
2010-05-31 07:09:42 51°14.241 2°53.689 234.8 14.9 236 8.6
2010-05-31 07:09:46 51°14.232 2°53.667 236.2 14.6 235 8.3
2010-05-31 07:09:51 51°14.219 2°53.642 233.8 14.8 234 9.1
2010-05-31 07:09:56 51°14.209 2°53.614 236.7 14.7 238 9
2010-05-31 07:10:02 51°14.194 2°53.583 236.4 14.7 232 9
2010-05-31 07:10:06 51°14.185 2°53.562 234.8 14.7 238 8.7
2010-05-31 07:10:11 51°14.173 2°53.534 236.7 14.7 234 8.5
2010-05-31 07:10:16 51°14.161 2°53.508 234.2 14.8 237 8.9
2010-05-31 07:10:22 51°14.148 2°53.475 237.4 14.7 234 8.5
2010-05-31 07:10:26 51°14.138 2°53.454 235.9 14.8 237 8.8
2010-05-31 07:10:32 51°14.123 2°53.423 235.3 15 231 9.4
2010-05-31 07:10:36 51°14.114 2°53.401 235.2 14.8 236 9.4
2010-05-31 07:10:42 51°14.099 2°53.37 235.4 14.7 229 8.7
2010-05-31 07:10:47 51°14.086 2°53.344 232.6 14.8 234 9.1
2010-05-31 07:10:52 51°14.075 2°53.318 234.6 14.8 233 9.1
2010-05-31 07:10:56 51°14.064 2°53.297 233.6 14.9 232 9.3
2010-05-31 07:11:02 51°14.051 2°53.264 234.9 14.6 236 9
2010-05-31 07:11:07 51°14.037 2°53.241 233.1 14.8 228 9
2010-05-31 07:11:11 51°14.028 2°53.218 232.8 15 237 8.8
2010-05-31 07:11:16 51°14.015 2°53.192 234 15 229 9.2
2010-05-31 07:11:22 51°14.001 2°53.16 233.5 14.8 236 9
2010-05-31 07:11:27 51°13.988 2°53.135 234.3 14.6 232 9
2010-05-31 07:11:31 51°13.978 2°53.114 233.5 14.7 233 8.9
2010-05-31 07:11:36 51°13.965 2°53.088 233.4 14.8 235 9.4
2010-05-31 07:11:42 51°13.951 2°53.057 234.8 14.7 232 9.5
2010-05-31 07:11:47 51°13.938 2°53.031 234.1 14.9 232 9.3
2010-05-31 07:11:51 51°13.929 2°53.009 234.1 15 234 9.6
2010-05-31 07:11:56 51°13.916 2°52.982 234.9 14.9 232 9.1
2010-05-31 07:12:02 51°13.902 2°52.95 235.2 14.7 236 9.4
2010-05-31 07:12:06 51°13.891 2°52.931 234.8 14.9 231 9.2
2010-05-31 07:12:12 51°13.878 2°52.898 234.7 14.7 237 9.7
2010-05-31 07:12:16 51°13.868 2°52.878 235.1 14.6 229 9.2
2010-05-31 07:12:22 51°13.854 2°52.846 232.5 14.7 238 9.3
2010-05-31 07:12:26 51°13.845 2°52.824 236.7 14.4 233 9.3
2010-05-31 07:12:32 51°13.83 2°52.794 233.9 14.7 233 9.6
2010-05-31 07:12:36 51°13.821 2°52.772 234.7 14.7 238 9.5
2010-05-31 07:12:42 51°13.806 2°52.742 235.2 14.6 231 9.6
2010-05-31 07:12:47 51°13.795 2°52.715 235 14.5 234 9.5
2010-05-31 07:12:51 51°13.785 2°52.694 234.9 14.6 233 9.1
2010-05-31 07:12:57 51°13.771 2°52.663 234.6 14.6 234 9.5
2010-05-31 07:13:02 51°13.759 2°52.638 234.8 14.4 233 9.5
2010-05-31 07:13:07 51°13.746 2°52.612 234.3 14.6 233 9.8
2010-05-31 07:13:11 51°13.737 2°52.591 234.5 14.6 234 9.7
2010-05-31 07:13:16 51°13.725 2°52.566 234.5 14.4 232 9.4
2010-05-31 07:13:22 51°13.711 2°52.534 234.5 14.5 236 9.3
2010-05-31 07:13:27 51°13.697 2°52.509 234.2 14.8 229 9.6
2010-05-31 07:13:31 51°13.689 2°52.487 233.9 14.5 238 9.3
2010-05-31 07:13:36 51°13.677 2°52.463 234.9 14.4 230 8.9
2010-05-31 07:13:42 51°13.662 2°52.431 232.3 14.6 235 9.7
2010-05-31 07:13:47 51°13.652 2°52.405 237 14.1 237 9.1
2010-05-31 07:13:51 51°13.64 2°52.387 233 14.6 228 9.6
2010-05-31 07:13:56 51°13.629 2°52.359 232.3 14.7 239 9.4
2010-05-31 07:14:02 51°13.615 2°52.33 236.7 14.1 231 9.3
2010-05-31 07:14:06 51°13.605 2°52.31 232.9 14.6 230 9.6
2010-05-31 07:14:11 51°13.593 2°52.283 234 14.6 239 9.8
2010-05-31 07:14:16 51°13.581 2°52.258 236.3 14.1 228 9.8
2010-05-31 07:14:22 51°13.567 2°52.228 232.8 14.3 234 9.5
2010-05-31 07:14:26 51°13.557 2°52.208 233.8 14.5 234 9.5
2010-05-31 07:14:31 51°13.546 2°52.182 235.2 14.3 234 9.6
2010-05-31 07:14:36 51°13.534 2°52.157 234.7 14.3 233 9.1
2010-05-31 07:14:42 51°13.519 2°52.127 233.1 14.6 234 9.6
2010-05-31 07:14:46 51°13.51 2°52.105 234.8 14.3 233 9.6
2010-05-31 07:14:51 51°13.497 2°52.081 233.5 14.5 233 9.3
2010-05-31 07:14:56 51°13.486 2°52.054 233.8 14.3 236 9.6
2010-05-31 07:15:02 51°13.471 2°52.026 233.7 14.3 229 9.3
2010-05-31 07:15:07 51°13.461 2°51.998 232.6 14.5 239 9.6
2010-05-31 07:15:11 51°13.45 2°51.979 234.4 14.7 226 9.3
2010-05-31 07:15:16 51°13.438 2°51.953 232.3 14.6 240 9.3
2010-05-31 07:15:22 51°13.423 2°51.924 234.9 14.1 227 9.3
2010-05-31 07:15:27 51°13.411 2°51.899 231.4 14.3 234 9.6
2010-05-31 07:15:31 51°13.402 2°51.878 233.1 14.2 231 9.4
2010-05-31 07:15:36 51°13.388 2°51.855 232.6 14.4 230 9
2010-05-31 07:15:42 51°13.375 2°51.824 233.3 14.2 235 9.1
2010-05-31 07:15:47 51°13.361 2°51.801 233 14.2 227 9.5
2010-05-31 07:15:51 51°13.351 2°51.781 232.3 14.4 232 9.4
2010-05-31 07:15:56 51°13.34 2°51.757 232.9 13.4 234 9.1
2010-05-31 07:16:01 51°13.329 2°51.735 233.7 12.9 230 9.1
2010-05-31 07:16:07 51°13.316 2°51.707 233 12.8 236 9.5
2010-05-31 07:16:12 51°13.308 2°51.684 236.4 12.1 238 9.6
2010-05-31 07:16:16 51°13.301 2°51.667 240.1 11.5 239 9.7
2010-05-31 07:16:22 51°13.293 2°51.641 242.8 10.9 243 9.8
2010-05-31 07:16:27 51°13.287 2°51.62 246.8 10.5 244 8.9
2010-05-31 07:16:32 51°13.281 2°51.599 248.7 10.1 247 9.5
2010-05-31 07:16:36 51°13.277 2°51.583 249.6 9.9 245 9.7
2010-05-31 07:16:41 51°13.271 2°51.564 249.8 9.5 249 9.8
2010-05-31 07:16:47 51°13.267 2°51.541 253.5 8.9 254 9.9
2010-05-31 07:16:51 51°13.266 2°51.526 260.8 8.1 262 9.8
2010-05-31 07:16:56 51°13.266 2°51.51 269.3 7.4 266 9.8
2010-05-31 07:17:02 51°13.266 2°51.492 275.8 6.7 273 9.9
2010-05-31 07:17:06 51°13.267 2°51.481 281.6 6.4 274 10.3
2010-05-31 07:17:11 51°13.268 2°51.468 286.9 5.7 281 10
2010-05-31 07:17:16 51°13.269 2°51.457 291.8 5.2 281 9.8
2010-05-31 07:17:22 51°13.272 2°51.444 296.1 4.8 286 9.7
2010-05-31 07:17:26 51°13.273 2°51.437 301.1 4.4 288 10
2010-05-31 07:17:31 51°13.276 2°51.428 305.6 4.2 294 9.8
2010-05-31 07:17:36 51°13.278 2°51.42 310 4 296 10
2010-05-31 07:17:42 51°13.281 2°51.411 315 3.8 303 9.9
2010-05-31 07:17:47 51°13.284 2°51.405 320.3 3.6 306 10
2010-05-31 07:17:51 51°13.287 2°51.4 325.2 3.4 310 10.1
2010-05-31 07:17:56 51°13.29 2°51.395 330.6 3.3 316 10.4
2010-05-31 07:18:01 51°13.293 2°51.39 335.5 3.2 320 10.3
2010-05-31 07:18:07 51°13.298 2°51.386 340.8 2.9 327 10.1
2010-05-31 07:18:12 51°13.301 2°51.383 346.6 2.8 333 9.8
2010-05-31 07:18:16 51°13.304 2°51.381 351.7 2.8 340 10.1
2010-05-31 07:18:22 51°13.308 2°51.379 356.5 2.6 345 10.3
2010-05-31 07:18:27 51°13.311 2°51.378 0.5 2.5 347 9.7
2010-05-31 07:18:31 51°13.314 2°51.377 3.6 2.5 354 10.1
2010-05-31 07:18:36 51°13.317 2°51.377 6.8 2.5 357 10
2010-05-31 07:18:42 51°13.321 2°51.378 10 2.4 7 10.4
2010-05-31 07:18:46 51°13.324 2°51.378 12.6 2.5 7 10.1
2010-05-31 07:18:52 51°13.329 2°51.38 15.6 2.8 13 10.4
2010-05-31 07:18:56 51°13.332 2°51.381 18.4 3.1 15 10.2
2010-05-31 07:19:02 51°13.337 2°51.384 20.6 3.4 18 10.1
2010-05-31 07:19:07 51°13.342 2°51.387 22.7 3.6 24 10.8
2010-05-31 07:19:11 51°13.345 2°51.389 23.4 3.7 22 10.7
2010-05-31 07:19:16 51°13.35 2°51.392 24.7 3.8 25 10.7
2010-05-31 07:19:21 51°13.355 2°51.395 24.8 3.9 18 10.1
2010-05-31 07:19:27 51°13.361 2°51.399 24.9 4.1 23 10.1
2010-05-31 07:19:31 51°13.365 2°51.402 24 4.1 21 10.1
2010-05-31 07:19:36 51°13.371 2°51.405 23.6 4.1 22 10.3
2010-05-31 07:19:42 51°13.378 2°51.408 23.6 4.5 18 10.4
2010-05-31 07:19:47 51°13.384 2°51.411 22.3 4.8 15 10
2010-05-31 07:19:51 51°13.389 2°51.413 21 4.9 16 10.2
2010-05-31 07:19:56 51°13.396 2°51.416 19.8 5.1 11 10.2
2010-05-31 07:20:02 51°13.405 2°51.419 18.5 5.4 12 10.5
2010-05-31 07:20:06 51°13.411 2°51.421 16.7 5.7 10 10.4
2010-05-31 07:20:12 51°13.421 2°51.423 15.3 5.9 9 10.1
2010-05-31 07:20:16 51°13.427 2°51.425 14.5 6 9 10.3
2010-05-31 07:20:22 51°13.437 2°51.427 13.4 6.2 7 10.5
2010-05-31 07:20:27 51°13.446 2°51.428 12.6 6 3 10.6
2010-05-31 07:20:32 51°13.453 2°51.429 10.7 5.5 6 10.6
2010-05-31 07:20:36 51°13.459 2°51.429 9.2 5.1 4 11.1
2010-05-31 07:20:41 51°13.465 2°51.429 7.7 4.3 2 10.7
2010-05-31 07:20:47 51°13.471 2°51.429 6.8 3.8 359 10.2
2010-05-31 07:20:52 51°13.476 2°51.43 7.6 3.4 4 10.4
2010-05-31 07:20:56 51°13.479 2°51.429 8.8 2.9 2 10.5
2010-05-31 07:21:02 51°13.482 2°51.43 11.4 2.5 10 -999
2010-05-31 07:21:07 51°13.485 2°51.431 15.5 2.1 9 10
2010-05-31 07:21:12 51°13.488 2°51.431 19.2 1.8 14 10.6
2010-05-31 07:21:16 51°13.489 2°51.432 23.3 1.4 20 10.3
2010-05-31 07:21:21 51°13.491 2°51.434 27.5 1.2 31 10.4
2010-05-31 07:21:27 51°13.492 2°51.435 31.3 0.8 37 10.1
2010-05-31 07:21:31 51°13.492 2°51.435 35.2 0.7 3 9.7
2010-05-31 07:21:37 51°13.493 2°51.436 40.1 0.5 72 10
2010-05-31 07:21:42 51°13.493 2°51.437 44.4 0.5 51 10.1
2010-05-31 07:21:47 51°13.494 2°51.438 46.7 0.5 78 9.8
2010-05-31 07:21:51 51°13.494 2°51.439 49.4 0.6 85 10
2010-05-31 07:21:56 51°13.494 2°51.441 51.2 0.6 83 9.8
2010-05-31 07:22:02 51°13.494 2°51.442 52.3 0.6 88 9.9
2010-05-31 07:22:06 51°13.494 2°51.443 52.4 0.8 101 10.9
2010-05-31 07:22:11 51°13.494 2°51.445 52.5 0.6 93 10.1
2010-05-31 07:22:16 51°13.494 2°51.446 52.3 0.8 110 10.2
2010-05-31 07:22:22 51°13.494 2°51.447 51.2 0.2 52 10
2010-05-31 07:22:27 51°13.493 2°51.449 50.5 0.9 122 10.3
2010-05-31 07:22:31 51°13.493 2°51.449 50 0.4 115 10.4
2010-05-31 07:22:36 51°13.492 2°51.45 49.4 0.4 126 10.3
2010-05-31 07:22:41 51°13.492 2°51.451 49 0.6 139 10.4
2010-05-31 07:22:47 51°13.492 2°51.451 48.7 0.3 148 10
2010-05-31 07:22:52 51°13.491 2°51.452 48.1 0.3 155 9.8
2010-05-31 07:22:56 51°13.491 2°51.452 47.6 0.5 139 10.3
2010-05-31 07:23:01 51°13.49 2°51.453 46.9 0.5 150 10.4
2010-05-31 07:23:07 51°13.49 2°51.453 46.7 0.4 159 10.1
2010-05-31 07:23:12 51°13.489 2°51.454 46.5 0.5 169 10
2010-05-31 07:23:16 51°13.489 2°51.454 46.3 0.3 198 9.7
2010-05-31 07:23:22 51°13.488 2°51.454 46.1 0.5 166 9.8
2010-05-31 07:23:26 51°13.487 2°51.454 45.8 0.6 153 10.3
2010-05-31 07:23:31 51°13.487 2°51.454 45.1 0.4 185 10.1
2010-05-31 07:23:36 51°13.486 2°51.454 45 0.4 185 10.1
2010-05-31 07:23:42 51°13.485 2°51.454 44.7 0.5 174 10.4
2010-05-31 07:23:46 51°13.485 2°51.454 44.2 0.5 189 10.3
2010-05-31 07:23:52 51°13.484 2°51.454 44.4 0.7 181 10.3
2010-05-31 07:23:56 51°13.483 2°51.453 44.9 0.5 220 10
2010-05-31 07:24:02 51°13.482 2°51.453 45.1 0.6 196 9.7
2010-05-31 07:24:06 51°13.481 2°51.453 45.1 0.6 197 9.9
2010-05-31 07:24:12 51°13.48 2°51.453 45.1 0.8 178 10.4
2010-05-31 07:24:16 51°13.479 2°51.453 45.1 0.7 208 9.9
2010-05-31 07:24:21 51°13.479 2°51.453 45.8 0.8 181 10
2010-05-31 07:24:27 51°13.477 2°51.452 46.1 0.7 196 10
2010-05-31 07:24:32 51°13.476 2°51.452 45.8 0.6 199 10.1
2010-05-31 07:24:36 51°13.475 2°51.451 45.3 0.8 187 10.4
2010-05-31 07:24:41 51°13.475 2°51.45 45.4 0.8 189 10.4
2010-05-31 07:24:47 51°13.473 2°51.45 45.7 0.7 198 10.2
2010-05-31 07:24:52 51°13.472 2°51.45 46.1 0.8 196 10.1
2010-05-31 07:24:56 51°13.471 2°51.449 45.9 0.8 208 9.9
2010-05-31 07:25:01 51°13.47 2°51.449 46.1 0.9 210 9.8
2010-05-31 07:25:07 51°13.468 2°51.448 47 0.9 183 10
2010-05-31 07:25:12 51°13.468 2°51.447 47.1 0.7 204 10.2
2010-05-31 07:25:16 51°13.466 2°51.447 45.9 1 191 10.1
2010-05-31 07:25:21 51°13.465 2°51.446 45.9 0.8 198 10.3
2010-05-31 07:25:27 51°13.463 2°51.446 45.6 0.9 198 10.5
2010-05-31 07:25:32 51°13.462 2°51.445 46.5 1 191 10.5
2010-05-31 07:25:36 51°13.461 2°51.444 46.4 1 210 10.2
2010-05-31 07:25:42 51°13.459 2°51.444 47.3 1.2 180 10.7
2010-05-31 07:25:46 51°13.458 2°51.443 47.3 1.1 200 10.4
2010-05-31 07:25:52 51°13.457 2°51.442 48.3 0.9 197 10.1
2010-05-31 07:25:56 51°13.456 2°51.442 48.5 0.9 204 9.7
2010-05-31 07:26:02 51°13.454 2°51.442 49.1 1 178 10.3
2010-05-31 07:26:07 51°13.453 2°51.441 50.5 0.7 208 10.1
2010-05-31 07:26:11 51°13.452 2°51.441 51.8 0.9 183 10.4
2010-05-31 07:26:16 51°13.451 2°51.441 53.8 0.6 192 10.1
2010-05-31 07:26:22 51°13.45 2°51.442 55.7 0.9 152 10.6
2010-05-31 07:26:27 51°13.45 2°51.443 57.4 0.4 119 10.3
2010-05-31 07:26:31 51°13.449 2°51.444 59.9 0.8 106 10
2010-05-31 07:26:36 51°13.449 2°51.447 63.8 1.2 89 10.4
2010-05-31 07:26:42 51°13.449 2°51.451 67.7 1.8 101 10.5
2010-05-31 07:26:47 51°13.449 2°51.456 73.2 1.9 94 10.4
2010-05-31 07:26:51 51°13.449 2°51.46 79 2.4 106 10.5
2010-05-31 07:26:56 51°13.448 2°51.465 85.7 2.7 103 10.2
2010-05-31 07:27:01 51°13.446 2°51.471 92.7 3 116 10.4
2010-05-31 07:27:07 51°13.444 2°51.479 97.7 3.1 116 10.4
2010-05-31 07:27:12 51°13.441 2°51.486 105.2 3.4 123 10.1
2010-05-31 07:27:16 51°13.438 2°51.49 110.9 3.8 136 10.4
2010-05-31 07:27:22 51°13.434 2°51.497 118.9 3.9 137 10
2010-05-31 07:27:26 51°13.429 2°51.501 126 4.2 149 10.4
2010-05-31 07:27:32 51°13.423 2°51.507 134.7 4.3 150 10.1
2010-05-31 07:27:36 51°13.418 2°51.508 142.2 4.6 165 10.3
2010-05-31 07:27:41 51°13.411 2°51.512 149.2 4.7 163 10.1
2010-05-31 07:27:47 51°13.403 2°51.512 154.9 5 176 10.4
2010-05-31 07:27:52 51°13.396 2°51.513 164.2 5 178 10.2
2010-05-31 07:27:56 51°13.39 2°51.511 170.9 5.2 188 10.1
2010-05-31 07:28:02 51°13.381 2°51.509 178.6 5.5 189 10.4
2010-05-31 07:28:06 51°13.375 2°51.505 184.6 5.6 199 10.3
2010-05-31 07:28:11 51°13.368 2°51.5 193.5 5.7 205 10
2010-05-31 07:28:16 51°13.361 2°51.494 201.2 5.9 210 9.9
2010-05-31 07:28:22 51°13.352 2°51.484 209 6.2 216 10
2010-05-31 07:28:26 51°13.347 2°51.477 214.4 6.4 217 10.2
2010-05-31 07:28:31 51°13.34 2°51.468 218.9 6.8 224 9.8
2010-05-31 07:28:36 51°13.332 2°51.458 222.2 7.2 221 10
2010-05-31 07:28:42 51°13.323 2°51.442 225.5 7.9 229 9.8
2010-05-31 07:28:47 51°13.315 2°51.429 228.2 8.3 229 9.9
2010-05-31 07:28:51 51°13.309 2°51.416 232.4 8.9 234 9.8
2010-05-31 07:28:56 51°13.302 2°51.399 236.7 9.2 236 9.9
2010-05-31 07:29:02 51°13.292 2°51.378 237.8 9.9 234 9.9
2010-05-31 07:29:07 51°13.284 2°51.36 236.7 10.4 234 9.7
2010-05-31 07:29:11 51°13.276 2°51.345 234.6 11 231 9.8
2010-05-31 07:29:16 51°13.267 2°51.324 235.4 11.4 236 9.7
2010-05-31 07:29:21 51°13.256 2°51.305 233.8 11.8 229 10.2
2010-05-31 07:29:27 51°13.244 2°51.278 234.8 12.2 234 9.8
2010-05-31 07:29:32 51°13.233 2°51.257 233.8 12.7 231 9.9
2010-05-31 07:29:36 51°13.226 2°51.237 235.2 12.8 237 9.3
2010-05-31 07:29:41 51°13.213 2°51.216 233 13.3 229 10
2010-05-31 07:29:46 51°13.203 2°51.191 233.5 13.5 237 10
2010-05-31 07:29:52 51°13.188 2°51.163 235.3 13.6 231 9.8
2010-05-31 07:29:56 51°13.181 2°51.142 236.1 13.6 239 9.6
2010-05-31 07:30:02 51°13.167 2°51.113 236.6 13.9 234 9.7
2010-05-31 07:30:07 51°13.157 2°51.086 237.7 14 239 10.2
2010-05-31 07:30:12 51°13.147 2°51.06 239.9 13.9 238 9.4
2010-05-31 07:30:16 51°13.139 2°51.038 240.6 14.1 239 10
2010-05-31 07:30:22 51°13.128 2°51.006 243.3 13.8 240 9.4
2010-05-31 07:30:26 51°13.119 2°50.985 242.1 14.4 240 9.9
2010-05-31 07:30:31 51°13.111 2°50.956 243.8 13.9 244 9.7
2010-05-31 07:30:36 51°13.101 2°50.931 242.7 13.9 236 10.5
2010-05-31 07:30:41 51°13.093 2°50.902 244.2 14 247 9.5
2010-05-31 07:30:47 51°13.08 2°50.87 243.8 14.2 237 9.6
2010-05-31 07:30:51 51°13.075 2°50.847 243.7 14.3 247 9.7
2010-05-31 07:30:56 51°13.065 2°50.82 245.4 14.1 241 9.9
2010-05-31 07:31:01 51°13.056 2°50.792 244.5 14.1 242 9.9
2010-05-31 07:31:07 51°13.045 2°50.759 244 14.1 243 9.4
2010-05-31 07:31:12 51°13.036 2°50.731 244.4 14.1 242 9.4
2010-05-31 07:31:16 51°13.029 2°50.709 244.3 14.3 242 9.8
2010-05-31 07:31:22 51°13.018 2°50.675 244.9 14.2 244 9.5
2010-05-31 07:31:27 51°13.008 2°50.648 244.4 14.2 240 10.1
2010-05-31 07:31:31 51°13.002 2°50.625 245.3 14.3 246 9.9
2010-05-31 07:31:36 51°12.992 2°50.597 245.4 14.3 242 10
2010-05-31 07:31:41 51°12.984 2°50.569 245.4 14.3 245 9.8
2010-05-31 07:31:47 51°12.973 2°50.535 246.1 14.1 242 9.8
2010-05-31 07:31:52 51°12.964 2°50.507 244.8 14.4 243 9.4
2010-05-31 07:31:56 51°12.956 2°50.485 245.5 14.4 244 9.6
2010-05-31 07:32:02 51°12.945 2°50.453 244.7 13.9 239 9.3
2010-05-31 07:32:07 51°12.937 2°50.423 243.1 14.4 246 10.4
2010-05-31 07:32:11 51°12.931 2°50.4 249.2 14 247 9.8
2010-05-31 07:32:16 51°12.922 2°50.373 246.4 14.1 243 9.8
2010-05-31 07:32:21 51°12.914 2°50.344 246.4 14.2 247 9.8
2010-05-31 07:32:26 51°12.905 2°50.316 247.4 14.2 242 9.8
2010-05-31 07:32:31 51°12.897 2°50.288 245.4 14.5 245 10.1
2010-05-31 07:32:36 51°12.887 2°50.259 245.5 14.5 243 10
2010-05-31 07:32:41 51°12.879 2°50.23 245.5 14.4 243 9.9
2010-05-31 07:32:46 51°12.869 2°50.202 244.5 14.5 245 9.9
2010-05-31 07:32:51 51°12.86 2°50.174 245.3 14.5 242 9.9
2010-05-31 07:32:56 51°12.851 2°50.145 244.7 14.6 242 10.3
2010-05-31 07:33:01 51°12.842 2°50.116 245 14.5 245 10.1
2010-05-31 07:33:07 51°12.829 2°50.083 243.9 14.5 239 10.3
2010-05-31 07:33:11 51°12.822 2°50.06 244 14.4 246 9.8
2010-05-31 07:33:16 51°12.812 2°50.033 244.5 14.4 238 10.1
2010-05-31 07:33:22 51°12.801 2°49.999 242.7 14.5 243 10
2010-05-31 07:33:27 51°12.792 2°49.971 243.6 14.3 242 10
2010-05-31 07:33:31 51°12.784 2°49.949 243.3 14.3 240 9.8
2010-05-31 07:33:36 51°12.775 2°49.92 243.4 14.4 245 9.9
2010-05-31 07:33:41 51°12.765 2°49.893 244.3 14.5 239 10.3
2010-05-31 07:33:47 51°12.754 2°49.858 243.5 14.4 245 10.3
2010-05-31 07:33:52 51°12.744 2°49.831 244.7 14.5 239 10.5
2010-05-31 07:33:56 51°12.737 2°49.807 244.3 14.4 246 9.7
2010-05-31 07:34:02 51°12.725 2°49.775 244.5 14.5 240 9.9
2010-05-31 07:34:06 51°12.718 2°49.751 244.2 14.5 244 10.7
2010-05-31 07:34:12 51°12.706 2°49.719 244.8 14.3 240 10
2010-05-31 07:34:16 51°12.699 2°49.695 244 14.5 242 10.1
2010-05-31 07:34:21 51°12.69 2°49.667 245 14.4 244 10.1
2010-05-31 07:34:27 51°12.679 2°49.634 245.1 14.1 241 9.9
2010-05-31 07:34:32 51°12.669 2°49.606 242.9 14.6 243 10.4
2010-05-31 07:34:36 51°12.663 2°49.582 245.7 14.4 245 9.9
2010-05-31 07:34:42 51°12.651 2°49.55 245.4 14.2 241 9.8
2010-05-31 07:34:46 51°12.644 2°49.527 244.3 14.3 242 10.4
2010-05-31 07:34:51 51°12.635 2°49.499 244 14.5 242 10.5
2010-05-31 07:34:56 51°12.626 2°49.47 244.7 14.2 243 10.2
2010-05-31 07:35:01 51°12.615 2°49.444 243.8 14.5 240 10.5
2010-05-31 07:35:06 51°12.607 2°49.415 244.6 14.3 245 10.6
2010-05-31 07:35:11 51°12.597 2°49.388 244.2 14.4 238 10.1
2010-05-31 07:35:16 51°12.587 2°49.358 242.9 14.6 246 10.3
2010-05-31 07:35:21 51°12.578 2°49.331 245.4 14.2 241 10.6
2010-05-31 07:35:27 51°12.567 2°49.298 244.9 14.1 242 10.2
2010-05-31 07:35:31 51°12.56 2°49.275 243.4 14.6 245 10.8
2010-05-31 07:35:36 51°12.552 2°49.246 246.2 14.2 243 10.1
2010-05-31 07:35:42 51°12.539 2°49.214 243.7 14.3 241 10.8
2010-05-31 07:35:47 51°12.531 2°49.185 245 14.3 244 10.5
2010-05-31 07:35:51 51°12.524 2°49.163 245.4 14.4 241 10.2
2010-05-31 07:35:56 51°12.515 2°49.136 244.9 14.2 242 10.9
2010-05-31 07:36:01 51°12.505 2°49.107 245.1 14.5 240 10.3
2010-05-31 07:36:07 51°12.494 2°49.073 244.1 14.4 245 10.4
2010-05-31 07:36:11 51°12.488 2°49.052 246.1 13.9 240 10
2010-05-31 07:36:16 51°12.477 2°49.026 242.5 14.2 242 10.4
2010-05-31 07:36:21 51°12.469 2°48.997 244.4 14.2 243 10.5
2010-05-31 07:36:27 51°12.457 2°48.964 244 14.2 242 10.2
2010-05-31 07:36:32 51°12.448 2°48.937 243.6 14.3 241 10.9
2010-05-31 07:36:36 51°12.44 2°48.914 243.8 14.2 242 10.9
2010-05-31 07:36:42 51°12.429 2°48.882 244 14.1 239 10.3
2010-05-31 07:36:46 51°12.42 2°48.86 242.5 14.4 243 10.6
2010-05-31 07:36:52 51°12.41 2°48.826 244.9 14.2 241 10.2
2010-05-31 07:36:56 51°12.402 2°48.804 243.2 14.2 241 10.6
2010-05-31 07:37:01 51°12.393 2°48.777 243 14.3 242 10.8
2010-05-31 07:37:07 51°12.382 2°48.743 245.4 14.2 242 10.1
2010-05-31 07:37:11 51°12.373 2°48.722 243.2 14.3 240 11.1
2010-05-31 07:37:16 51°12.365 2°48.693 244.7 14.3 244 10.5
2010-05-31 07:37:22 51°12.353 2°48.661 243.9 14.4 240 10.6
2010-05-31 07:37:27 51°12.344 2°48.632 244.7 14.4 242 10.7
2010-05-31 07:37:31 51°12.336 2°48.61 244 14.3 243 11.2
2010-05-31 07:37:36 51°12.327 2°48.582 245.4 14.4 238 10.7
2010-05-31 07:37:42 51°12.317 2°48.548 243.3 14.4 247 10.4
2010-05-31 07:37:47 51°12.307 2°48.521 246.1 14.3 239 10.4
2010-05-31 07:37:51 51°12.299 2°48.499 243.2 14.3 245 10.5
2010-05-31 07:37:56 51°12.291 2°48.47 244.3 14.2 240 10.3
2010-05-31 07:38:02 51°12.278 2°48.437 243.7 14.6 241 11
2010-05-31 07:38:07 51°12.271 2°48.408 244.7 14.3 245 10
2010-05-31 07:38:11 51°12.261 2°48.387 244.6 14.4 239 10.5
2010-05-31 07:38:16 51°12.254 2°48.358 244.5 14.3 245 10.5
2010-05-31 07:38:21 51°12.244 2°48.331 245 14.3 240 10.7
2010-05-31 07:38:27 51°12.233 2°48.297 244.3 14.5 244 10.8
2010-05-31 07:38:31 51°12.226 2°48.274 245.3 14.4 243 10.6
2010-05-31 07:38:36 51°12.217 2°48.247 245.2 14.2 241 10.4
2010-05-31 07:38:41 51°12.207 2°48.219 243.4 14.3 245 10.6
2010-05-31 07:38:47 51°12.196 2°48.185 245.4 14.4 240 10.9
2010-05-31 07:38:51 51°12.189 2°48.163 243.8 14.4 244 10.9
2010-05-31 07:38:56 51°12.18 2°48.135 245 14.4 242 10.8
2010-05-31 07:39:01 51°12.171 2°48.106 245.6 14.4 242 10.9
2010-05-31 07:39:07 51°12.16 2°48.073 244.5 14.3 243 10.5
2010-05-31 07:39:12 51°12.151 2°48.045 245.1 14.2 242 10.2
2010-05-31 07:39:16 51°12.142 2°48.023 243 14.5 241 10.8
2010-05-31 07:39:22 51°12.133 2°47.988 244.3 14.4 245 10.7
2010-05-31 07:39:27 51°12.122 2°47.961 244.9 14.4 238 11
2010-05-31 07:39:31 51°12.117 2°47.937 244.3 14.1 246 10.3
2010-05-31 07:39:37 51°12.104 2°47.905 244.1 14.3 240 10.6
2010-05-31 07:39:42 51°12.095 2°47.877 244.7 14.3 243 10.6
2010-05-31 07:39:47 51°12.085 2°47.849 243.6 14.5 241 10.7
2010-05-31 07:39:51 51°12.079 2°47.826 244.7 14.4 245 10.5
2010-05-31 07:39:56 51°12.069 2°47.799 244.1 14.4 240 10.1
2010-05-31 07:40:02 51°12.058 2°47.764 244.3 14.5 244 10.9
2010-05-31 07:40:07 51°12.049 2°47.736 245.4 14.3 242 10.6
2010-05-31 07:40:11 51°12.041 2°47.714 242.8 14.7 241 11.1
2010-05-31 07:40:16 51°12.033 2°47.685 244.7 14.4 246 10.5
2010-05-31 07:40:22 51°12.02 2°47.653 244 14.3 238 10.4
2010-05-31 07:40:27 51°12.012 2°47.623 243.5 14.5 247 10.6
2010-05-31 07:40:31 51°12.004 2°47.602 244.5 14.4 238 10.7
2010-05-31 07:40:36 51°11.995 2°47.573 243.4 14.4 247 10.6
2010-05-31 07:40:41 51°11.987 2°47.544 245.4 14.5 240 10.7
2010-05-31 07:40:47 51°11.976 2°47.51 244 14.5 247 10.7
2010-05-31 07:40:51 51°11.969 2°47.487 246.4 14.3 241 10.4
2010-05-31 07:40:56 51°11.958 2°47.46 244 14.5 243 11.1
2010-05-31 07:41:01 51°11.952 2°47.43 246.9 14.1 245 10.6
2010-05-31 07:41:06 51°11.94 2°47.403 243.2 14.5 239 10.7
2010-05-31 07:41:11 51°11.932 2°47.374 244 14.4 246 10.6
2010-05-31 07:41:16 51°11.922 2°47.347 244.8 14.4 239 10.7
2010-05-31 07:41:21 51°11.913 2°47.318 243.2 14.3 245 10.9
2010-05-31 07:41:26 51°11.904 2°47.29 244.9 14.4 241 10.4
2010-05-31 07:41:32 51°11.894 2°47.255 245.2 14.5 245 10.9
2010-05-31 07:41:36 51°11.886 2°47.233 245.4 14.3 241 10.6
2010-05-31 07:41:41 51°11.878 2°47.205 244.6 14.2 243 10.3
2010-05-31 07:41:47 51°11.865 2°47.172 242.7 14.7 241 11.1
2010-05-31 07:41:52 51°11.857 2°47.143 245.1 14.4 244 10.6
2010-05-31 07:41:56 51°11.849 2°47.121 244.6 14.2 241 10.5
2010-05-31 07:42:02 51°11.838 2°47.087 243.6 14.4 243 10.3
2010-05-31 07:42:07 51°11.829 2°47.058 244.5 14.5 245 10.4
2010-05-31 07:42:11 51°11.821 2°47.037 244.2 14.4 239 10.5
2010-05-31 07:42:16 51°11.812 2°47.008 242.6 14.5 244 10.3
2010-05-31 07:42:22 51°11.8 2°46.974 244.3 14.6 242 10.4
2010-05-31 07:42:27 51°11.791 2°46.946 244.4 14.5 243 10.5
2010-05-31 07:42:32 51°11.781 2°46.918 244.6 14.4 241 10.7
2010-05-31 07:42:36 51°11.774 2°46.895 243.9 14.4 244 9.9
2010-05-31 07:42:42 51°11.763 2°46.861 243.7 14.7 242 10.7
2010-05-31 07:42:47 51°11.754 2°46.832 244.9 14.4 244 10.3
2010-05-31 07:42:51 51°11.747 2°46.809 245.1 14.2 242 10.1
2010-05-31 07:42:56 51°11.737 2°46.782 243.2 14.5 243 10.7
2010-05-31 07:43:01 51°11.73 2°46.751 246.6 14.5 246 10
2010-05-31 07:43:06 51°11.718 2°46.725 245.1 14.6 238 10.4
2010-05-31 07:43:11 51°11.711 2°46.695 245 14.2 246 10.1
2010-05-31 07:43:16 51°11.7 2°46.669 243.2 14.5 236 10.4
2010-05-31 07:43:21 51°11.692 2°46.639 243.8 14.5 247 10.1
2010-05-31 07:43:26 51°11.682 2°46.612 245.1 14.4 240 10.2
2010-05-31 07:43:31 51°11.673 2°46.584 244 14.2 246 10.6
2010-05-31 07:43:36 51°11.664 2°46.556 245.1 14.4 239 10.5
2010-05-31 07:43:41 51°11.655 2°46.527 244.4 14.6 247 10.4
2010-05-31 07:43:46 51°11.647 2°46.499 246.3 14.4 239 10.9
2010-05-31 07:43:51 51°11.637 2°46.471 245.1 14.1 246 9.8
2010-05-31 07:43:56 51°11.628 2°46.444 245 14.2 242 10.6
2010-05-31 07:44:01 51°11.618 2°46.416 244.3 14.5 242 10.6
2010-05-31 07:44:07 51°11.608 2°46.381 245.1 14.5 243 10.9
2010-05-31 07:44:12 51°11.598 2°46.353 245 14.4 242 10.6
2010-05-31 07:44:16 51°11.591 2°46.331 244.7 14.1 243 9.8
2010-05-31 07:44:22 51°11.58 2°46.298 244.5 14.5 240 11
2010-05-31 07:44:27 51°11.571 2°46.269 244.8 14.4 244 10.6
2010-05-31 07:44:31 51°11.563 2°46.247 244.7 14.2 242 10.4
2010-05-31 07:44:36 51°11.555 2°46.218 245 14.3 245 10.2
2010-05-31 07:44:42 51°11.543 2°46.185 244.5 14.5 241 10.6
2010-05-31 07:44:47 51°11.534 2°46.157 244.1 14.4 242 10.6
2010-05-31 07:44:52 51°11.525 2°46.129 243.7 14.2 243 10.1
2010-05-31 07:44:56 51°11.518 2°46.107 244.6 14.3 242 10.3
2010-05-31 07:45:02 51°11.506 2°46.073 243.3 14.4 243 9.7
2010-05-31 07:45:07 51°11.498 2°46.044 244.8 14.3 244 10.1
2010-05-31 07:45:11 51°11.49 2°46.022 244.1 14.4 240 10.5
2010-05-31 07:45:16 51°11.481 2°45.993 244.5 14.2 246 10
2010-05-31 07:45:21 51°11.471 2°45.966 244.2 14.5 239 9.7
2010-05-31 07:45:26 51°11.462 2°45.937 243.2 14.6 245 10.5
2010-05-31 07:45:31 51°11.454 2°45.909 245.6 14 241 9.7
2010-05-31 07:45:36 51°11.443 2°45.882 242.6 14.2 242 10.2
2010-05-31 07:45:41 51°11.436 2°45.852 245.6 14.4 246 9.8
2010-05-31 07:45:46 51°11.424 2°45.825 244.1 14.7 239 10.2
2010-05-31 07:45:52 51°11.414 2°45.791 244 14.5 244 10.2
2010-05-31 07:45:56 51°11.406 2°45.768 244.8 14.3 240 10.3
2010-05-31 07:46:01 51°11.398 2°45.74 243.7 14.2 243 9.8
2010-05-31 07:46:06 51°11.387 2°45.712 244.2 14.6 240 10.7
2010-05-31 07:46:11 51°11.379 2°45.683 245.2 14.5 246 9.7
2010-05-31 07:46:16 51°11.369 2°45.656 244.7 14.6 240 10.3
2010-05-31 07:46:21 51°11.36 2°45.626 245 14.4 245 9.8
2010-05-31 07:46:26 51°11.35 2°45.599 245.3 14.4 240 10
2010-05-31 07:46:31 51°11.342 2°45.57 243.6 14.3 244 9.6
2010-05-31 07:46:36 51°11.332 2°45.543 243.5 14.5 240 10
2010-05-31 07:46:41 51°11.323 2°45.513 243.9 14.7 245 9.7
2010-05-31 07:46:47 51°11.311 2°45.48 244.8 14.4 240 9.4
2010-05-31 07:46:51 51°11.304 2°45.458 243.2 14.3 244 9.5
2010-05-31 07:46:56 51°11.295 2°45.429 244 14.3 242 9.6
2010-05-31 07:47:02 51°11.283 2°45.395 243.2 14.9 240 10.1
2010-05-31 07:47:07 51°11.275 2°45.366 243.8 14.3 247 9.5
2010-05-31 07:47:11 51°11.265 2°45.347 243.7 14.6 235 10.1
2010-05-31 07:47:16 51°11.257 2°45.316 241.3 14.7 249 10.1
2010-05-31 07:47:21 51°11.249 2°45.288 248 14.3 243 9.4
2010-05-31 07:47:27 51°11.237 2°45.255 243.7 14.4 242 9.5
2010-05-31 07:47:32 51°11.23 2°45.225 245.2 14.3 249 9.5
2010-05-31 07:47:36 51°11.222 2°45.204 245.5 14.2 239 9.7
2010-05-31 07:47:42 51°11.212 2°45.17 243.6 14.2 247 9.5
2010-05-31 07:47:47 51°11.202 2°45.142 245.1 14.2 241 9.3
2010-05-31 07:47:52 51°11.193 2°45.113 243.3 14.4 245 9.8
2010-05-31 07:47:56 51°11.188 2°45.091 246.9 13.9 242 9.8
2010-05-31 07:48:01 51°11.177 2°45.064 243.7 14.2 241 9.4
2010-05-31 07:48:07 51°11.168 2°45.03 244.5 14.3 245 9.6
2010-05-31 07:48:12 51°11.158 2°45.003 245.4 14.2 241 9.4
2010-05-31 07:48:16 51°11.151 2°44.98 244.1 14.3 243 9.3
2010-05-31 07:48:22 51°11.14 2°44.947 244.1 14.2 243 9.7
2010-05-31 07:48:26 51°11.133 2°44.925 245.3 14.2 241 9.3
2010-05-31 07:48:31 51°11.124 2°44.897 243.9 14.2 243 9.4
2010-05-31 07:48:36 51°11.115 2°44.869 244.2 14.3 244 9.1
2010-05-31 07:48:41 51°11.106 2°44.841 244.5 14.2 242 9.4
2010-05-31 07:48:47 51°11.095 2°44.808 244.2 14.1 243 9.4
2010-05-31 07:48:51 51°11.088 2°44.785 244.5 14.3 243 9.3
2010-05-31 07:48:56 51°11.078 2°44.758 243.7 14.2 241 8.9
2010-05-31 07:49:01 51°11.069 2°44.729 243.3 14.4 242 8.9
2010-05-31 07:49:07 51°11.058 2°44.696 243.5 14.2 243 9
2010-05-31 07:49:11 51°11.051 2°44.674 243.3 14.1 241 9.3
2010-05-31 07:49:16 51°11.042 2°44.646 243.8 14.2 243 8.9
2010-05-31 07:49:22 51°11.03 2°44.612 243.3 14.5 244 9.8
2010-05-31 07:49:27 51°11.021 2°44.585 245.4 14.3 239 9.5
2010-05-31 07:49:31 51°11.013 2°44.563 243.4 14.3 243 9
2010-05-31 07:49:36 51°11.005 2°44.535 243.8 14.1 241 9.3
2010-05-31 07:49:41 51°10.996 2°44.508 243.9 14.3 241 9.1
2010-05-31 07:49:47 51°10.985 2°44.474 242.9 14.3 245 9
2010-05-31 07:49:51 51°10.978 2°44.451 244.5 14.1 242 8.5
2010-05-31 07:49:56 51°10.968 2°44.424 243.2 14.4 244 9.2
2010-05-31 07:50:01 51°10.959 2°44.396 244.9 14.5 241 9
2010-05-31 07:50:07 51°10.948 2°44.362 244.3 14.2 244 9.5
2010-05-31 07:50:12 51°10.94 2°44.335 245.6 13.8 241 8.5
2010-05-31 07:50:16 51°10.931 2°44.314 241.6 14.2 240 9.1
2010-05-31 07:50:22 51°10.922 2°44.279 243.1 14.5 246 8.5
2010-05-31 07:50:27 51°10.911 2°44.251 244.4 14.5 241 8.8
2010-05-31 07:50:32 51°10.903 2°44.223 244.4 14.1 244 9
2010-05-31 07:50:36 51°10.895 2°44.201 244 14.2 240 8.5
2010-05-31 07:50:41 51°10.887 2°44.172 245 14.2 245 8.8
2010-05-31 07:50:47 51°10.875 2°44.139 244.9 14.4 242 9.3
2010-05-31 07:50:51 51°10.87 2°44.117 246.2 13.8 245 8.7
2010-05-31 07:50:56 51°10.859 2°44.091 242.5 14.2 240 8.3
2010-05-31 07:51:02 51°10.849 2°44.056 243.6 14.5 246 8.7
2010-05-31 07:51:07 51°10.839 2°44.028 244.7 14.3 240 9.1
2010-05-31 07:51:11 51°10.833 2°44.005 244.5 14.1 245 8.4
2010-05-31 07:51:16 51°10.823 2°43.978 244.4 14.1 241 8.5
2010-05-31 07:51:22 51°10.814 2°43.945 244.6 13.9 244 8.1
2010-05-31 07:51:27 51°10.804 2°43.917 243.9 14.2 242 8.4
2010-05-31 07:51:31 51°10.796 2°43.895 243.6 14.3 245 9
2010-05-31 07:51:36 51°10.788 2°43.866 246.1 14.2 240 8.6
2010-05-31 07:51:41 51°10.779 2°43.839 243.2 14.3 247 8.4
2010-05-31 07:51:47 51°10.768 2°43.806 246.2 14.1 240 8.4
2010-05-31 07:51:51 51°10.761 2°43.783 242.7 14.2 243 8.4
2010-05-31 07:51:56 51°10.751 2°43.756 243.5 14.1 239 8.7
2010-05-31 07:52:01 51°10.743 2°43.728 244 14.3 243 8.6
2010-05-31 07:52:07 51°10.731 2°43.695 243.8 14.4 241 8.6
2010-05-31 07:52:11 51°10.724 2°43.673 243.9 14.1 244 8.1
2010-05-31 07:52:16 51°10.716 2°43.646 244.4 13.9 240 8.4
2010-05-31 07:52:21 51°10.707 2°43.618 242.8 14.3 244 8.4
2010-05-31 07:52:26 51°10.698 2°43.589 244.8 14.3 244 8.4
2010-05-31 07:52:31 51°10.688 2°43.562 244 14.3 241 8.2
2010-05-31 07:52:36 51°10.68 2°43.533 243 14 245 7.9
2010-05-31 07:52:41 51°10.671 2°43.507 243.3 14 240 8.1
2010-05-31 07:52:47 51°10.66 2°43.473 242.5 14.3 245 8.4
2010-05-31 07:52:52 51°10.651 2°43.445 245 14.1 242 7.9
2010-05-31 07:52:56 51°10.643 2°43.423 242.7 14.3 243 8.4
2010-05-31 07:53:02 51°10.634 2°43.389 245.3 14 243 8
2010-05-31 07:53:07 51°10.624 2°43.363 244.6 14 240 8
2010-05-31 07:53:11 51°10.616 2°43.341 241.8 13.7 237 7.9
2010-05-31 07:53:16 51°10.603 2°43.32 236.3 13.3 230 8
2010-05-31 07:53:22 51°10.588 2°43.295 231.2 12.9 225 8.4
2010-05-31 07:53:27 51°10.574 2°43.277 226 12.8 218 7.6
2010-05-31 07:53:31 51°10.562 2°43.265 217.3 12.4 211 8.2
2010-05-31 07:53:36 51°10.548 2°43.253 211 11.7 203 7.7
2010-05-31 07:53:40 51°10.536 2°43.25 199.8 11.4 196 8.2
2010-05-31 07:53:47 51°10.514 2°43.239 193.6 11.5 193 7.9
2010-05-31 07:53:51 51°10.502 2°43.238 188.5 10.8 190 8.1
2010-05-31 07:53:56 51°10.487 2°43.234 186.2 10.8 182 5.6
2010-05-31 07:54:01 51°10.472 2°43.234 178.2 11 185 8
2010-05-31 07:54:07 51°10.455 2°43.232 178.3 10.2 181 8
2010-05-31 07:54:11 51°10.444 2°43.235 173.4 9.6 173 7.5
2010-05-31 07:54:16 51°10.43 2°43.235 166.5 10 180 7.7
2010-05-31 07:54:21 51°10.417 2°43.235 171.1 9.5 183 7.6
2010-05-31 07:54:26 51°10.404 2°43.233 175.3 9.2 189 8.1
2010-05-31 07:54:32 51°10.39 2°43.223 188.2 9 203 7.6
2010-05-31 07:54:36 51°10.38 2°43.218 192.4 9 203 8
2010-05-31 07:54:42 51°10.369 2°43.204 201.7 8.7 218 7.6
2010-05-31 07:54:46 51°10.361 2°43.195 211.2 8.8 217 7.7
2010-05-31 07:54:52 51°10.351 2°43.179 216.8 8.6 225 7.6
2010-05-31 07:54:56 51°10.344 2°43.17 218.9 8.6 220 7.7
2010-05-31 07:55:01 51°10.336 2°43.155 220.4 8.5 232 7.9
2010-05-31 07:55:06 51°10.33 2°43.14 229.3 8.2 234 7.5
2010-05-31 07:55:11 51°10.324 2°43.124 235.8 8.1 247 7.8
2010-05-31 07:55:16 51°10.321 2°43.108 245.4 7.7 248 7.4
2010-05-31 07:55:21 51°10.317 2°43.092 251.8 7.6 258 7.5
2010-05-31 07:55:27 51°10.315 2°43.073 259.7 7.4 257 8.5
2010-05-31 07:55:31 51°10.316 2°43.061 267.9 7.1 266 8.4
2010-05-31 07:55:36 51°10.316 2°43.046 275.6 6.8 273 8.1
2010-05-31 07:55:41 51°10.317 2°43.031 282.9 6.6 276 7.7
2010-05-31 07:55:47 51°10.319 2°43.014 288.8 6.3 284 7.9
2010-05-31 07:55:51 51°10.322 2°43.004 296 6.2 289 8.1
2010-05-31 07:55:56 51°10.325 2°42.993 303.1 6 296 8
2010-05-31 07:56:02 51°10.331 2°42.98 310.3 5.7 303 7.9
2010-05-31 07:56:07 51°10.335 2°42.971 317.5 5.5 310 7.7
2010-05-31 07:56:11 51°10.34 2°42.964 325.2 5.2 315 7.9
2010-05-31 07:56:16 51°10.345 2°42.958 332.9 4.5 321 8.2
2010-05-31 07:56:21 51°10.349 2°42.952 338 4 322 7.9
2010-05-31 07:56:27 51°10.354 2°42.946 340.6 3.4 323 7.9
2010-05-31 07:56:32 51°10.357 2°42.942 343.5 3 321 7.9
2010-05-31 07:56:36 51°10.359 2°42.939 347.2 2.4 322 8.4
2010-05-31 07:56:42 51°10.362 2°42.936 351.2 2 323 8.2
2010-05-31 07:56:47 51°10.363 2°42.934 355.9 1.5 322 8.1
2010-05-31 07:56:52 51°10.365 2°42.932 1 1.3 325 7.9
2010-05-31 07:56:56 51°10.366 2°42.931 6.4 1 323 7.8
2010-05-31 07:57:01 51°10.366 2°42.93 11 0.7 320 8.1
2010-05-31 07:57:07 51°10.367 2°42.928 14.4 0.7 299 7.7
2010-05-31 07:57:11 51°10.367 2°42.928 18.1 0.6 276 7.5
2010-05-31 07:57:16 51°10.367 2°42.927 22.5 0.2 220 8.2
2010-05-31 07:57:22 51°10.367 2°42.926 24.5 0.6 271 8.1
2010-05-31 07:57:26 51°10.366 2°42.926 27.7 0.3 195 8.2
2010-05-31 07:57:31 51°10.366 2°42.925 29.8 0.6 266 7.9
2010-05-31 07:57:36 51°10.366 2°42.924 31.3 0.5 151 8.3
2010-05-31 07:57:41 51°10.366 2°42.923 32.6 0.4 244 8
2010-05-31 07:57:47 51°10.365 2°42.923 33.9 0.5 224 7.7
2010-05-31 07:57:51 51°10.365 2°42.923 35.7 0.4 227 8
2010-05-31 07:57:56 51°10.364 2°42.922 36.2 0.5 178 8.3
2010-05-31 07:58:02 51°10.364 2°42.921 36.4 0.5 239 7.9
2010-05-31 07:58:07 51°10.363 2°42.92 37.6 0.6 218 7.8
2010-05-31 07:58:11 51°10.362 2°42.92 38.1 0.5 205 7.7
2010-05-31 07:58:16 51°10.362 2°42.919 38.4 0.6 193 8
2010-05-31 07:58:22 51°10.361 2°42.918 37.5 0.6 245 7.5
2010-05-31 07:58:27 51°10.36 2°42.918 38.2 0.6 214 7.4
2010-05-31 07:58:31 51°10.36 2°42.917 38.4 0.7 219 7.8
2010-05-31 07:58:36 51°10.359 2°42.916 38.1 0.8 199 8
2010-05-31 07:58:41 51°10.358 2°42.915 37.8 0.8 227 8
2010-05-31 07:58:46 51°10.357 2°42.914 38.6 0.9 210 7.6
2010-05-31 07:58:51 51°10.356 2°42.913 39.1 0.9 202 8
2010-05-31 07:58:56 51°10.355 2°42.911 38.6 0.9 209 8
2010-05-31 07:59:01 51°10.354 2°42.911 38.6 1 236 7.7
2010-05-31 07:59:06 51°10.352 2°42.91 39.3 0.9 200 7.9
2010-05-31 07:59:11 51°10.351 2°42.909 39 1 207 7.6
2010-05-31 07:59:16 51°10.35 2°42.908 39.4 1 211 7.7
2010-05-31 07:59:21 51°10.349 2°42.907 40.2 1 207 7.9
2010-05-31 07:59:26 51°10.348 2°42.905 40.7 1 213 8
2010-05-31 07:59:31 51°10.346 2°42.904 41 1.1 216 7.8
2010-05-31 07:59:36 51°10.344 2°42.903 41.2 1.2 217 7.7
2010-05-31 07:59:41 51°10.343 2°42.902 41.6 1.2 191 8.1
2010-05-31 07:59:47 51°10.342 2°42.9 41.9 1.1 221 7.5
2010-05-31 07:59:52 51°10.341 2°42.899 42.6 1 214 7.3
2010-05-31 07:59:56 51°10.34 2°42.898 44.3 1.2 201 7.9
2010-05-31 08:00:02 51°10.338 2°42.896 44.1 1.2 225 7.8
2010-05-31 08:00:07 51°10.336 2°42.896 44.8 1.3 198 7.9
2010-05-31 08:00:11 51°10.335 2°42.894 45.3 1.2 228 7.8
2010-05-31 08:00:16 51°10.333 2°42.893 46.6 1.6 183 8.4
2010-05-31 08:00:22 51°10.332 2°42.89 46.9 1.3 234 8
2010-05-31 08:00:27 51°10.33 2°42.89 47.6 1.4 202 7.6
2010-05-31 08:00:32 51°10.329 2°42.887 48.7 1.3 240 7.5
2010-05-31 08:00:36 51°10.327 2°42.887 49.1 1.8 185 8.4
2010-05-31 08:00:42 51°10.326 2°42.884 49.7 1.5 237 5.6
2010-05-31 08:00:47 51°10.323 2°42.883 50.9 1.6 198 7.8
2010-05-31 08:00:51 51°10.323 2°42.881 52.2 1.4 238 7.8
2010-05-31 08:00:56 51°10.32 2°42.88 52 1.7 211 7.7
2010-05-31 08:01:01 51°10.32 2°42.878 53.7 1.3 216 7.8
2010-05-31 08:01:07 51°10.318 2°42.875 53.5 1.4 220 7.7
2010-05-31 08:01:12 51°10.316 2°42.874 53.8 1.5 207 7.9
2010-05-31 08:01:16 51°10.314 2°42.872 54.2 1.6 215 7.9
2010-05-31 08:01:22 51°10.313 2°42.87 55.4 1.5 222 7.6
2010-05-31 08:01:26 51°10.311 2°42.869 56 1.7 207 7.6
2010-05-31 08:01:31 51°10.309 2°42.867 57 1.6 212 8.4
2010-05-31 08:01:36 51°10.307 2°42.865 57.5 1.8 198 8.5
2010-05-31 08:01:41 51°10.305 2°42.863 59.2 1.4 226 7.9
2010-05-31 08:01:46 51°10.303 2°42.862 60.6 1.5 217 7.6
2010-05-31 08:01:51 51°10.301 2°42.86 61.5 1.4 224 7.4
2010-05-31 08:01:56 51°10.299 2°42.858 62.4 1.6 207 7.9
2010-05-31 08:02:01 51°10.297 2°42.856 62.5 1.5 222 8.1
2010-05-31 08:02:07 51°10.295 2°42.854 63.3 1.7 207 8.1
2010-05-31 08:02:12 51°10.293 2°42.852 64.9 1.5 222 7.8
2010-05-31 08:02:16 51°10.292 2°42.851 65.4 1.8 205 7.7
2010-05-31 08:02:22 51°10.29 2°42.848 66.1 1.5 210 8
2010-05-31 08:02:27 51°10.289 2°42.846 66.6 1.4 235 7.4
2010-05-31 08:02:31 51°10.287 2°42.845 67.1 1.6 211 7.7
2010-05-31 08:02:36 51°10.285 2°42.842 67.7 1.5 223 8.1
2010-05-31 08:02:42 51°10.283 2°42.84 68.2 1.8 207 8.2
2010-05-31 08:02:47 51°10.281 2°42.838 68.6 1.6 216 5.7
2010-05-31 08:02:52 51°10.28 2°42.836 70.8 1.5 226 7.5
2010-05-31 08:02:56 51°10.278 2°42.834 71.6 1.6 216 8.1
2010-05-31 08:03:01 51°10.277 2°42.832 70.8 1.5 209 8.1
2010-05-31 08:03:07 51°10.274 2°42.831 72 1.4 207 7.8
2010-05-31 08:03:11 51°10.273 2°42.831 72.5 1.1 196 7.5
2010-05-31 08:03:16 51°10.272 2°42.83 73.4 1 187 7.9
2010-05-31 08:03:22 51°10.27 2°42.83 72.7 1 171 8
2010-05-31 08:03:27 51°10.269 2°42.831 72.4 0.7 157 7.9
2010-05-31 08:03:31 51°10.269 2°42.832 72.2 1 136 7.9
2010-05-31 08:03:36 51°10.268 2°42.834 72.1 0.8 111 7.5
2010-05-31 08:03:41 51°10.267 2°42.837 70.7 1.3 112 7.8
2010-05-31 08:03:47 51°10.267 2°42.84 69.8 1.3 87 7.5
2010-05-31 08:03:52 51°10.267 2°42.844 69.2 1.8 84 7.3
2010-05-31 08:03:56 51°10.268 2°42.849 67.8 2.2 79 7.8
2010-05-31 08:04:02 51°10.269 2°42.855 65.7 2.7 76 7.8
2010-05-31 08:04:07 51°10.271 2°42.86 63.9 2.9 61 7.7
2010-05-31 08:04:11 51°10.272 2°42.866 59.1 3.4 68 7.7
2010-05-31 08:04:17 51°10.276 2°42.873 56.9 3.7 50 7.5
2010-05-31 08:04:22 51°10.279 2°42.882 54.5 4.3 59 8.1
2010-05-31 08:04:26 51°10.283 2°42.887 51.3 4.5 50 8.2
2010-05-31 08:04:31 51°10.287 2°42.896 49.8 4.9 54 8.1
2010-05-31 08:04:36 51°10.292 2°42.904 50.8 5.5 48 7.8
2010-05-31 08:04:42 51°10.298 2°42.916 50.8 5.9 50 7.4
2010-05-31 08:04:47 51°10.304 2°42.927 50.9 6.4 51 7.7
2010-05-31 08:04:51 51°10.309 2°42.937 51.8 7 52 8.2
2010-05-31 08:04:56 51°10.315 2°42.949 51.7 7.3 53 7.9
2010-05-31 08:05:02 51°10.323 2°42.965 51.9 7.7 51 7.9
2010-05-31 08:05:07 51°10.33 2°42.978 51.5 8 51 7.4
2010-05-31 08:05:12 51°10.337 2°42.993 52.2 8.3 53 8
2010-05-31 08:05:16 51°10.343 2°43.005 52.5 8.7 54 8
2010-05-31 08:05:22 51°10.353 2°43.023 52.8 8.9 50 8.1
2010-05-31 08:05:27 51°10.361 2°43.039 51.8 9.2 51 7.6
2010-05-31 08:05:31 51°10.367 2°43.052 52.3 9.3 50 7.7
2010-05-31 08:05:36 51°10.376 2°43.068 51.4 9.7 54 7.6
2010-05-31 08:05:41 51°10.384 2°43.086 52.9 9.8 49 7.5
2010-05-31 08:05:46 51°10.393 2°43.103 52 10.2 52 5.5
2010-05-31 08:05:52 51°10.403 2°43.124 53.1 10.3 51 7.2
2010-05-31 08:05:56 51°10.41 2°43.139 52 10.5 54 7.5
2010-05-31 08:06:01 51°10.418 2°43.158 54.5 10.5 50 7.2
2010-05-31 08:06:06 51°10.429 2°43.175 50.8 10.8 50 7.6
2010-05-31 08:06:11 51°10.438 2°43.194 52.2 10.7 50 7.1
2010-05-31 08:06:16 51°10.447 2°43.213 53 11 54 7.3
2010-05-31 08:06:21 51°10.457 2°43.232 52.7 10.9 48 6.9
2010-05-31 08:06:26 51°10.466 2°43.252 52.5 11.1 59 7.2
2010-05-31 08:06:31 51°10.476 2°43.27 53.8 11.1 50 7.8
2010-05-31 08:06:36 51°10.485 2°43.29 53.2 11.1 53 5.6
2010-05-31 08:06:42 51°10.496 2°43.314 53.2 11.3 51 7.5
2010-05-31 08:06:47 51°10.506 2°43.333 53 11.3 52 7.4
2010-05-31 08:06:51 51°10.513 2°43.35 53.5 11.3 53 7.6
2010-05-31 08:06:56 51°10.523 2°43.369 53.1 11.3 52 7.9
2010-05-31 08:07:02 51°10.533 2°43.394 53.6 11.4 59 8.1
2010-05-31 08:07:07 51°10.543 2°43.413 56 11.1 51 7.7
2010-05-31 08:07:11 51°10.551 2°43.428 53.1 11.5 56 7.1
2010-05-31 08:07:16 51°10.559 2°43.45 55.7 11.4 51 7.2
2010-05-31 08:07:22 51°10.57 2°43.475 54.3 11.8 59 7.4
2010-05-31 08:07:27 51°10.578 2°43.495 58.2 11.1 53 7.5
2010-05-31 08:07:31 51°10.586 2°43.511 54.8 11.5 57 7.2
2010-05-31 08:07:36 51°10.593 2°43.534 58.9 11.3 55 7.7
2010-05-31 08:07:41 51°10.604 2°43.553 55.8 11.5 55 7.3
2010-05-31 08:07:47 51°10.613 2°43.58 57.4 11.5 59 7.9
2010-05-31 08:07:51 51°10.621 2°43.596 56.2 11.5 52 7.3
2010-05-31 08:07:56 51°10.629 2°43.618 56.7 11.4 60 7.2
2010-05-31 08:08:01 51°10.637 2°43.64 59.1 11.5 55 7.5
2010-05-31 08:08:07 51°10.648 2°43.665 57.4 11.6 59 7.6
2010-05-31 08:08:12 51°10.656 2°43.687 59 11.5 59 7.6
2010-05-31 08:08:16 51°10.663 2°43.704 58.3 11.5 56 7.6
2010-05-31 08:08:22 51°10.672 2°43.731 60.3 11.5 61 7.4
2010-05-31 08:08:27 51°10.681 2°43.753 59.8 11.7 59 7.8
2010-05-31 08:08:31 51°10.688 2°43.77 58.6 11.7 60 7.7
2010-05-31 08:08:36 51°10.695 2°43.793 61 11.7 59 7.6
2010-05-31 08:08:42 51°10.706 2°43.818 57.8 11.7 57 8.1
2010-05-31 08:08:47 51°10.714 2°43.841 58.5 11.7 59 -999
2010-05-31 08:08:51 51°10.722 2°43.858 59.2 11.7 55 7.7
2010-05-31 08:08:56 51°10.73 2°43.88 57.5 11.7 62 8.1
2010-05-31 08:09:02 51°10.74 2°43.907 59.5 11.8 58 8
2010-05-31 08:09:06 51°10.748 2°43.924 58.6 11.9 56 7.8
2010-05-31 08:09:11 51°10.756 2°43.947 58 11.8 61 8.4
2010-05-31 08:09:16 51°10.765 2°43.968 58 11.7 59 8.1
2010-05-31 08:09:22 51°10.775 2°43.996 60.2 11.8 59 7.5
2010-05-31 08:09:27 51°10.783 2°44.018 58.7 11.8 59 8
2010-05-31 08:09:32 51°10.792 2°44.04 59.2 11.8 61 7.8
2010-05-31 08:09:36 51°10.798 2°44.058 60 11.7 55 7.8
2010-05-31 08:09:42 51°10.809 2°44.085 57.5 12.1 60 7.9
2010-05-31 08:09:47 51°10.818 2°44.107 59.2 11.7 55 8.1
2010-05-31 08:09:51 51°10.824 2°44.126 59.1 11.8 62 8.1
2010-05-31 08:09:56 51°10.834 2°44.147 58.3 11.9 51 8.4
2010-05-31 08:10:01 51°10.842 2°44.17 57.1 12.1 63 8.3
2010-05-31 08:10:06 51°10.852 2°44.191 58.9 11.8 52 8.2
2010-05-31 08:10:11 51°10.86 2°44.213 57 11.8 61 7.8
2010-05-31 08:10:16 51°10.868 2°44.236 59.6 11.8 56 8.2
2010-05-31 08:10:21 51°10.877 2°44.259 58 12.1 62 8.6
2010-05-31 08:10:27 51°10.887 2°44.286 59.7 11.9 57 8.5
2010-05-31 08:10:32 51°10.894 2°44.31 60.2 12.1 65 8.5
2010-05-31 08:10:36 51°10.902 2°44.327 60 12 54 8.5
2010-05-31 08:10:42 51°10.91 2°44.356 60.6 12.1 65 8.5
2010-05-31 08:10:47 51°10.921 2°44.377 60.5 12 55 8.6
2010-05-31 08:10:51 51°10.926 2°44.397 60.2 12 66 8
2010-05-31 08:10:56 51°10.934 2°44.418 61.1 12 54 8.2
2010-05-31 08:11:01 51°10.942 2°44.442 59.4 12.1 67 8.4
2010-05-31 08:11:07 51°10.952 2°44.469 63.2 11.8 56 8.2
2010-05-31 08:11:11 51°10.959 2°44.487 59.3 11.8 62 8.1
2010-05-31 08:11:16 51°10.965 2°44.511 62.1 11.8 59 8.4
2010-05-31 08:11:21 51°10.974 2°44.534 59.6 12.2 65 8.7
2010-05-31 08:11:27 51°10.983 2°44.562 62.4 11.8 58 8.8
2010-05-31 08:11:31 51°10.99 2°44.58 60.2 11.9 65 8.5
2010-05-31 08:11:36 51°10.996 2°44.604 62.9 11.9 64 8.9
2010-05-31 08:11:42 51°11.007 2°44.632 61.6 12.1 62 8.6
2010-05-31 08:11:47 51°11.013 2°44.656 62.5 12 63 9
2010-05-31 08:11:52 51°11.022 2°44.679 61.1 11.9 62 8.5
2010-05-31 08:11:56 51°11.027 2°44.698 63 12.2 67 8.9
2010-05-31 08:12:02 51°11.038 2°44.724 61.8 11.9 54 8.2
2010-05-31 08:12:06 51°11.044 2°44.743 59.1 11.8 65 8.6
2010-05-31 08:12:11 51°11.051 2°44.768 62.9 11.9 62 8.8
2010-05-31 08:12:16 51°11.06 2°44.79 60.3 11.9 62 8.4
2010-05-31 08:12:21 51°11.065 2°44.815 63.7 12 65 9.4
2010-05-31 08:12:26 51°11.076 2°44.836 60.5 12.1 57 8.8
2010-05-31 08:12:31 51°11.082 2°44.86 60.2 11.8 63 9
2010-05-31 08:12:36 51°11.091 2°44.883 60.5 12.1 60 9.3
2010-05-31 08:12:41 51°11.099 2°44.906 60 12 59 8.7
2010-05-31 08:12:47 51°11.109 2°44.933 60.2 11.9 60 9.1
2010-05-31 08:12:51 51°11.116 2°44.951 59.6 12 60 8.8
2010-05-31 08:12:56 51°11.124 2°44.974 59.6 11.9 59 8.3
2010-05-31 08:13:02 51°11.134 2°45.001 59.7 11.9 59 8.9
2010-05-31 08:13:06 51°11.141 2°45.019 59 12.1 64 9.2
2010-05-31 08:13:11 51°11.15 2°45.043 61.5 12 52 8.8
2010-05-31 08:13:16 51°11.159 2°45.064 56.3 12.1 62 9.3
2010-05-31 08:13:22 51°11.169 2°45.091 58.6 11.9 57 9.8
2010-05-31 08:13:27 51°11.177 2°45.115 58.5 12 63 9.4
2010-05-31 08:13:31 51°11.184 2°45.132 60.3 11.9 55 9.7
2010-05-31 08:13:36 51°11.194 2°45.154 56.9 12.1 57 9.1
2010-05-31 08:13:41 51°11.201 2°45.178 61 11.9 58 9.2
2010-05-31 08:13:47 51°11.212 2°45.205 58.6 12.1 60 9.3
2010-05-31 08:13:51 51°11.218 2°45.223 58.6 12 63 9.5
2010-05-31 08:13:56 51°11.226 2°45.246 61.8 11.9 58 9.6
2010-05-31 08:14:01 51°11.236 2°45.268 57.2 12 57 9.1
2010-05-31 08:14:07 51°11.245 2°45.295 59.4 11.9 59 9.1
2010-05-31 08:14:12 51°11.254 2°45.318 58.6 11.9 60 9.5
2010-05-31 08:14:16 51°11.261 2°45.336 58.8 11.9 59 9.3
2010-05-31 08:14:22 51°11.271 2°45.363 61.1 11.8 59 9.5